createdAt,value
2022-11-04T00:01:43.845Z,3.83
2022-11-04T00:04:11.315Z,4.03
2022-11-04T00:06:38.363Z,3.43
2022-11-04T00:09:07.156Z,3.90
2022-11-04T00:11:52.218Z,4.13
2022-11-04T00:14:19.235Z,4.30
2022-11-04T00:17:04.419Z,3.90
2022-11-04T00:19:52.132Z,3.80
2022-11-04T00:22:37.666Z,4.17
2022-11-04T00:25:23.924Z,4.10
2022-11-04T00:28:09.536Z,3.50
2022-11-04T00:30:36.322Z,3.97
2022-11-04T00:33:21.520Z,3.53
2022-11-04T00:35:49.814Z,4.37
2022-11-04T00:38:17.418Z,3.90
2022-11-04T00:40:44.229Z,4.43
2022-11-04T00:43:10.959Z,3.60
2022-11-04T00:45:37.429Z,3.93
2022-11-04T00:48:04.131Z,4.03
2022-11-04T00:50:30.588Z,4.40
2022-11-04T00:53:00.969Z,4.17
2022-11-04T00:55:27.762Z,4.23
2022-11-04T00:57:54.717Z,4.53
2022-11-04T01:00:21.387Z,4.37
2022-11-04T01:02:48.227Z,4.20
2022-11-04T01:05:14.787Z,4.00
2022-11-04T01:07:43.800Z,5.30
2022-11-04T01:10:10.927Z,4.20
2022-11-04T01:12:37.400Z,4.33
2022-11-04T01:15:04.108Z,4.33
2022-11-04T01:17:30.598Z,4.97
2022-11-04T01:19:57.149Z,4.43
2022-11-04T01:22:23.581Z,4.67
2022-11-04T01:24:50.026Z,4.43
2022-11-04T01:27:16.450Z,4.87
2022-11-04T01:29:42.956Z,4.67
2022-11-04T01:32:09.390Z,4.67
2022-11-04T01:34:40.653Z,4.77
2022-11-04T01:37:09.896Z,4.83
2022-11-04T01:39:36.372Z,4.27
2022-11-04T01:45:14.432Z,4.90
2022-11-04T01:47:44.886Z,4.73
2022-11-04T01:50:15.107Z,4.87
2022-11-04T01:52:47.261Z,5.23
2022-11-04T01:55:17.869Z,4.80
2022-11-04T01:57:47.448Z,4.63
2022-11-04T02:00:14.576Z,4.50
2022-11-04T02:02:48.572Z,4.80
2022-11-04T02:05:15.057Z,4.90
2022-11-04T02:07:41.638Z,4.87
2022-11-04T02:10:08.403Z,4.83
2022-11-04T02:12:49.989Z,5.00
2022-11-04T02:15:35.997Z,4.47
2022-11-04T02:18:24.459Z,4.60
2022-11-04T02:21:11.785Z,4.73
2022-11-04T02:24:06.279Z,4.23
2022-11-04T02:27:10.460Z,4.60
2022-11-04T02:29:52.109Z,5.10
2022-11-04T02:32:38.111Z,5.10
2022-11-04T02:35:23.463Z,4.60
2022-11-04T02:38:14.604Z,5.30
2022-11-04T02:41:05.430Z,5.53
2022-11-04T02:43:34.982Z,5.33
2022-11-04T02:46:16.731Z,5.53
2022-11-04T02:49:09.168Z,6.07
2022-11-04T02:52:18.136Z,6.17
2022-11-04T02:54:49.019Z,5.87
2022-11-04T02:57:19.858Z,5.67
2022-11-04T02:59:49.259Z,6.17
2022-11-04T03:02:19.346Z,5.63
2022-11-04T03:04:49.911Z,5.30
2022-11-04T03:07:19.902Z,5.47
2022-11-04T03:09:50.347Z,5.77
2022-11-04T03:12:18.333Z,5.23
2022-11-04T03:14:49.134Z,5.60
2022-11-04T03:17:23.398Z,6.20
2022-11-04T03:19:54.740Z,5.63
2022-11-04T03:22:22.752Z,5.43
2022-11-04T03:24:49.667Z,5.17
2022-11-04T03:27:27.521Z,5.47
2022-11-04T03:30:02.193Z,5.23
2022-11-04T03:32:53.952Z,5.43
2022-11-04T03:35:20.598Z,5.73
2022-11-04T03:37:48.284Z,5.67
2022-11-04T03:40:15.877Z,6.10
2022-11-04T03:42:46.482Z,5.80
2022-11-04T03:45:13.693Z,5.33
2022-11-04T03:47:41.048Z,6.23
2022-11-04T03:50:13.493Z,5.90
2022-11-04T03:52:40.220Z,5.83
2022-11-04T03:55:07.572Z,6.20
2022-11-04T03:57:56.982Z,6.23
2022-11-04T04:00:24.087Z,5.57
2022-11-04T04:03:06.471Z,5.73
2022-11-04T04:05:35.942Z,6.10
2022-11-04T04:08:41.292Z,5.77
2022-11-04T04:11:21.296Z,6.07
2022-11-04T04:13:56.882Z,6.53
2022-11-04T04:16:29.495Z,6.77
2022-11-04T04:19:06.145Z,6.70
2022-11-04T04:21:38.090Z,6.67
2022-11-04T04:24:25.082Z,6.63
2022-11-04T04:27:11.103Z,6.57
2022-11-04T04:29:38.310Z,6.73
2022-11-04T04:32:05.520Z,7.10
2022-11-04T04:34:33.098Z,6.83
2022-11-04T04:37:05.916Z,6.40
2022-11-04T04:40:26.650Z,6.87
2022-11-04T04:43:12.024Z,7.13
2022-11-04T04:45:41.230Z,6.53
2022-11-04T04:48:09.905Z,7.03
2022-11-04T04:50:38.901Z,7.17
2022-11-04T04:53:05.533Z,6.90
2022-11-04T04:55:35.167Z,6.63
2022-11-04T04:58:03.850Z,6.80
2022-11-04T05:00:30.356Z,7.17
2022-11-04T05:02:56.813Z,7.70
2022-11-04T05:05:23.685Z,6.50
2022-11-04T05:07:50.204Z,7.50
2022-11-04T05:10:17.697Z,7.57
2022-11-04T05:13:02.727Z,7.50
2022-11-04T05:15:30.015Z,7.60
2022-11-04T05:17:58.408Z,7.60
2022-11-04T05:20:25.144Z,7.07
2022-11-04T05:22:51.766Z,7.47
2022-11-04T05:25:18.232Z,7.50
2022-11-04T05:27:44.675Z,6.83
2022-11-04T05:30:11.513Z,6.97
2022-11-04T05:32:37.959Z,6.80
2022-11-04T05:35:04.704Z,6.67
2022-11-04T05:37:31.162Z,5.80
2022-11-04T05:39:57.639Z,5.30
2022-11-04T05:42:24.078Z,4.87
2022-11-04T05:44:50.539Z,4.50
2022-11-04T05:47:17.122Z,4.63
2022-11-04T05:49:43.650Z,4.60
2022-11-04T05:52:10.127Z,3.77
2022-11-04T05:54:38.292Z,3.30
2022-11-04T05:57:04.805Z,3.50
2022-11-04T05:59:31.262Z,2.60
2022-11-04T06:01:57.815Z,2.50
2022-11-04T06:04:24.422Z,2.07
2022-11-04T06:06:51.961Z,2.10
2022-11-04T06:09:18.451Z,2.20
2022-11-04T06:11:45.410Z,1.77
2022-11-04T06:14:17.463Z,1.63
2022-11-04T06:16:45.095Z,1.40
2022-11-04T06:19:15.941Z,1.80
2022-11-04T06:21:42.706Z,1.40
2022-11-04T06:24:09.171Z,1.60
2022-11-04T06:26:35.644Z,1.40
2022-11-04T06:29:02.113Z,1.40
2022-11-04T06:31:28.572Z,1.50
2022-11-04T06:33:55.004Z,1.27
2022-11-04T06:36:21.643Z,1.60
2022-11-04T06:38:48.173Z,1.50
2022-11-04T06:41:16.356Z,1.40
2022-11-04T06:43:42.844Z,1.23
2022-11-04T06:46:24.207Z,1.57
2022-11-04T06:48:50.633Z,1.50
2022-11-04T06:51:17.096Z,1.20
2022-11-04T06:53:43.528Z,1.30
2022-11-04T06:56:10.334Z,1.60
2022-11-04T06:58:36.773Z,1.57
2022-11-04T07:01:07.461Z,1.50
2022-11-04T07:03:39.177Z,1.50
2022-11-04T07:06:07.305Z,1.30
2022-11-04T07:08:33.766Z,1.50
2022-11-04T07:11:00.264Z,1.40
2022-11-04T07:13:26.745Z,1.60
2022-11-04T07:15:53.250Z,1.53
2022-11-04T07:20:47.599Z,1.60
2022-11-04T07:23:14.071Z,1.63
2022-11-04T07:25:40.708Z,1.60
2022-11-04T07:28:07.423Z,1.60
2022-11-04T07:30:34.133Z,1.67
2022-11-04T07:33:00.587Z,1.53
2022-11-04T07:35:27.056Z,1.80
2022-11-04T07:37:55.082Z,1.67
2022-11-04T07:40:21.551Z,2.17
2022-11-04T07:42:48.039Z,1.60
2022-11-04T07:45:14.579Z,1.83
2022-11-04T07:47:41.032Z,1.70
2022-11-04T07:50:10.947Z,1.63
2022-11-04T07:52:37.627Z,1.93
2022-11-04T07:55:04.435Z,1.70
2022-11-04T07:57:30.917Z,1.70
2022-11-04T07:59:57.404Z,1.90
2022-11-04T08:02:26.764Z,1.70
2022-11-04T08:04:56.657Z,2.10
2022-11-04T08:07:23.161Z,2.03
2022-11-04T08:09:49.644Z,1.97
2022-11-04T08:12:16.109Z,2.20
2022-11-04T08:14:42.596Z,2.07
2022-11-04T08:17:10.057Z,2.33
2022-11-04T08:19:36.565Z,2.00
2022-11-04T08:22:03.030Z,2.03
2022-11-04T08:24:29.521Z,1.97
2022-11-04T08:26:55.970Z,1.90
2022-11-04T08:29:23.780Z,2.03
2022-11-04T08:31:50.204Z,2.20
2022-11-04T08:34:18.399Z,2.10
2022-11-04T08:36:45.428Z,2.40
2022-11-04T08:39:13.057Z,2.13
2022-11-04T08:41:42.012Z,2.33
2022-11-04T08:44:09.233Z,2.13
2022-11-04T08:46:38.400Z,2.20
2022-11-04T08:49:10.018Z,1.87
2022-11-04T08:51:41.058Z,1.90
2022-11-04T08:54:07.720Z,2.10
2022-11-04T08:56:36.549Z,1.90
2022-11-04T08:59:04.301Z,1.60
2022-11-04T09:01:35.769Z,1.73
2022-11-04T09:04:03.704Z,1.73
2022-11-04T09:06:34.303Z,1.80
2022-11-04T09:09:04.457Z,1.77
2022-11-04T09:11:33.442Z,1.90
2022-11-04T09:14:01.245Z,1.87
2022-11-04T09:16:29.421Z,2.10
2022-11-04T09:18:57.548Z,2.03
2022-11-04T09:21:25.148Z,3.33
2022-11-04T09:23:53.664Z,3.50
2022-11-04T09:26:25.695Z,1.90
2022-11-04T09:28:56.602Z,3.30
2022-11-04T09:31:24.119Z,2.73
2022-11-04T09:33:50.960Z,2.73
2022-11-04T09:36:17.655Z,2.10
2022-11-04T09:38:45.127Z,2.00
2022-11-04T09:41:36.598Z,1.90
2022-11-04T09:44:21.977Z,1.90
2022-11-04T09:46:49.531Z,1.90
2022-11-04T09:49:16.833Z,2.10
2022-11-04T09:51:55.427Z,2.00
2022-11-04T09:54:24.896Z,2.17
2022-11-04T09:56:53.202Z,2.30
2022-11-04T09:59:32.553Z,2.10
2022-11-04T10:02:07.357Z,2.17
2022-11-04T10:04:46.744Z,2.07
2022-11-04T10:07:21.189Z,2.00
2022-11-04T10:10:01.619Z,2.53
2022-11-04T10:12:49.496Z,2.00
2022-11-04T10:15:30.842Z,1.90
2022-11-04T10:18:14.996Z,2.30
2022-11-04T10:20:47.585Z,1.83
2022-11-04T10:23:27.122Z,2.20
2022-11-04T10:26:17.227Z,2.20
2022-11-04T10:28:52.449Z,1.90
2022-11-04T10:31:19.325Z,1.80
2022-11-04T10:33:50.116Z,2.00
2022-11-04T10:36:17.263Z,1.77
2022-11-04T10:38:51.387Z,1.63
2022-11-04T10:41:24.158Z,1.40
2022-11-04T10:43:57.767Z,1.47
2022-11-04T10:46:42.541Z,1.63
2022-11-04T10:49:34.340Z,1.40
2022-11-04T10:52:00.833Z,1.33
2022-11-04T10:54:27.701Z,1.40
2022-11-04T10:56:55.577Z,1.60
2022-11-04T10:59:29.025Z,1.43
2022-11-04T11:01:57.960Z,1.30
2022-11-04T11:04:29.157Z,1.77
2022-11-04T11:06:57.725Z,1.60
2022-11-04T11:09:29.587Z,1.77
2022-11-04T11:12:29.437Z,1.60
2022-11-04T11:14:52.877Z,1.77
2022-11-04T11:17:35.176Z,1.40
2022-11-04T11:20:08.404Z,1.50
2022-11-04T11:22:34.824Z,1.50
2022-11-04T11:25:30.964Z,1.53
2022-11-04T11:28:03.109Z,1.40
2022-11-04T11:30:45.882Z,1.30
2022-11-04T11:33:20.222Z,1.50
2022-11-04T11:35:52.141Z,1.30
2022-11-04T11:38:22.964Z,1.53
2022-11-04T11:41:18.818Z,1.53
2022-11-04T11:43:43.329Z,1.50
2022-11-04T11:46:10.813Z,1.70
2022-11-04T11:48:42.828Z,1.80
2022-11-04T11:51:38.745Z,2.00
2022-11-04T11:54:26.899Z,1.47
2022-11-04T12:02:59.428Z,1.93
2022-11-04T12:11:37.187Z,1.60
2022-11-04T12:14:16.005Z,1.77
2022-11-04T12:16:49.199Z,1.40
2022-11-04T12:19:37.927Z,1.70
2022-11-04T12:22:35.519Z,1.90
2022-11-04T12:25:24.647Z,1.67
2022-11-04T12:28:17.282Z,1.70
2022-11-04T12:31:00.055Z,1.30
2022-11-04T12:33:45.273Z,1.70
2022-11-04T12:36:32.941Z,1.37
2022-11-04T12:39:21.529Z,1.60
2022-11-04T12:42:29.687Z,1.90
2022-11-04T12:45:18.309Z,1.83
2022-11-04T12:47:46.081Z,1.53
2022-11-04T12:50:50.068Z,1.27
2022-11-04T12:53:33.271Z,1.50
2022-11-04T12:56:12.812Z,1.83
2022-11-04T12:58:53.534Z,1.40
2022-11-04T13:02:01.121Z,1.70
2022-11-04T13:04:36.635Z,1.70
2022-11-04T13:07:08.632Z,1.50
2022-11-04T13:09:43.408Z,1.50
2022-11-04T13:12:13.171Z,1.80
2022-11-04T13:14:47.648Z,1.40
2022-11-04T13:22:45.053Z,1.50
2022-11-04T13:25:20.102Z,1.53
2022-11-04T13:27:48.219Z,1.70
2022-11-04T13:30:30.029Z,1.57
2022-11-04T13:32:58.669Z,1.30
2022-11-04T13:35:33.586Z,1.30
2022-11-04T13:38:06.004Z,1.73
2022-11-04T13:40:45.965Z,1.80
2022-11-04T13:43:40.319Z,1.60
2022-11-04T13:46:17.589Z,2.00
2022-11-04T13:49:01.110Z,1.80
2022-11-04T13:51:45.617Z,1.77
2022-11-04T13:54:27.495Z,1.77
2022-11-04T13:57:04.953Z,1.90
2022-11-04T13:59:32.029Z,2.23
2022-11-04T14:02:11.074Z,2.00
2022-11-04T14:04:44.903Z,1.80
2022-11-04T14:07:14.433Z,1.97
2022-11-04T14:09:46.818Z,2.00
2022-11-04T14:12:17.169Z,1.80
2022-11-04T14:14:46.005Z,1.70
2022-11-04T14:17:44.583Z,1.83
2022-11-04T14:20:22.559Z,2.10
2022-11-04T14:22:49.737Z,1.83
2022-11-04T14:25:47.912Z,2.03
2022-11-04T14:28:14.309Z,1.90
2022-11-04T14:30:51.367Z,1.67
2022-11-04T14:33:27.101Z,1.80
2022-11-04T14:35:55.541Z,2.00
2022-11-04T14:38:29.654Z,1.80
2022-11-04T14:41:23.240Z,1.73
2022-11-04T14:43:50.181Z,2.17
2022-11-04T14:46:22.724Z,1.90
2022-11-04T14:48:52.448Z,1.73
2022-11-04T14:51:24.901Z,1.93
2022-11-04T14:53:52.774Z,2.00
2022-11-04T14:56:24.580Z,2.27
2022-11-04T14:59:05.575Z,2.27
2022-11-04T15:01:38.589Z,2.20
2022-11-04T15:04:13.484Z,2.47
2022-11-04T15:06:54.031Z,2.20
2022-11-04T15:09:27.614Z,2.43
2022-11-04T15:12:27.982Z,2.00
2022-11-04T15:14:55.544Z,2.03
2022-11-04T15:17:24.367Z,2.53
2022-11-04T15:19:52.207Z,2.10
2022-11-04T15:22:19.437Z,2.40
2022-11-04T15:24:46.320Z,2.40
2022-11-04T15:27:18.493Z,1.70
2022-11-04T15:29:55.109Z,2.40
2022-11-04T15:32:21.667Z,2.17
2022-11-04T15:34:48.226Z,2.30
2022-11-04T15:37:15.647Z,2.50
2022-11-04T15:39:46.904Z,2.73
2022-11-04T15:42:43.164Z,2.40
2022-11-04T15:45:21.955Z,2.30
2022-11-04T15:47:48.788Z,2.10
2022-11-04T15:50:22.317Z,2.37
2022-11-04T15:52:53.106Z,2.13
2022-11-04T15:55:22.955Z,2.53
2022-11-04T15:57:50.061Z,2.20
2022-11-04T16:00:16.487Z,2.00
2022-11-04T16:02:55.132Z,2.33
2022-11-04T16:05:24.638Z,2.73
2022-11-04T16:07:53.479Z,3.10
2022-11-04T16:10:32.623Z,3.60
2022-11-04T16:13:14.392Z,3.20
2022-11-04T16:15:49.587Z,2.80
2022-11-04T16:18:33.971Z,2.70
2022-11-04T16:21:06.350Z,2.67
2022-11-04T16:23:39.659Z,5.50
2022-11-04T16:26:06.879Z,7.93
2022-11-04T16:28:37.855Z,8.37
2022-11-04T16:31:25.082Z,7.27
2022-11-04T16:33:51.839Z,6.47
2022-11-04T16:36:23.717Z,5.87
2022-11-04T16:38:55.460Z,5.23
2022-11-04T16:41:26.292Z,5.93
2022-11-04T16:43:53.690Z,9.37
2022-11-04T16:46:20.489Z,5.93
2022-11-04T16:48:46.924Z,4.63
2022-11-04T16:51:18.235Z,4.53
2022-11-04T16:53:48.727Z,4.93
2022-11-04T16:56:16.408Z,5.03
2022-11-04T16:58:42.939Z,5.10
2022-11-04T17:01:13.264Z,4.87
2022-11-04T17:03:40.384Z,4.13
2022-11-04T17:06:07.053Z,4.13
2022-11-04T17:08:33.573Z,4.60
2022-11-04T17:11:00.090Z,3.80
2022-11-04T17:13:27.622Z,3.80
2022-11-04T17:15:55.407Z,4.27
2022-11-04T17:18:22.088Z,5.00
2022-11-04T17:20:51.290Z,5.00
2022-11-04T17:23:17.883Z,5.37
2022-11-04T17:25:45.220Z,7.07
2022-11-04T17:28:11.739Z,6.73
2022-11-04T17:30:39.015Z,7.23
2022-11-04T17:33:07.465Z,6.13
2022-11-04T17:35:35.200Z,6.40
2022-11-04T17:38:01.651Z,5.53
2022-11-04T17:40:28.367Z,4.90
2022-11-04T17:43:14.053Z,5.00
2022-11-04T17:45:43.940Z,4.87
2022-11-04T17:48:11.284Z,5.20
2022-11-04T17:50:39.373Z,5.07
2022-11-04T17:53:05.809Z,4.50
2022-11-04T17:55:37.291Z,4.67
2022-11-04T17:58:03.754Z,4.90
2022-11-04T18:00:30.260Z,4.73
2022-11-04T18:02:56.910Z,5.03
2022-11-04T18:05:23.427Z,4.50
2022-11-04T18:07:49.863Z,5.30
2022-11-04T18:10:16.513Z,6.77
2022-11-04T18:12:43.352Z,8.60
2022-11-04T18:15:31.243Z,6.77
2022-11-04T18:18:04.334Z,6.90
2022-11-04T18:20:38.171Z,7.40
2022-11-04T18:23:05.513Z,6.10
2022-11-04T18:25:32.564Z,6.50
2022-11-04T18:27:59.007Z,5.97
2022-11-04T18:30:26.618Z,5.67
2022-11-04T18:32:54.088Z,6.53
2022-11-04T18:35:20.535Z,6.43
2022-11-04T18:37:47.670Z,5.30
2022-11-04T18:40:14.748Z,5.30
2022-11-04T18:42:41.572Z,5.67
2022-11-04T18:45:08.903Z,6.00
2022-11-04T18:47:37.745Z,8.23
2022-11-04T18:50:04.565Z,11.73
2022-11-04T18:52:32.095Z,16.97
2022-11-04T18:54:59.217Z,11.87
2022-11-04T18:57:25.673Z,14.43
2022-11-04T18:59:52.221Z,8.30
2022-11-04T19:02:23.640Z,8.43
2022-11-04T19:04:50.957Z,14.57
2022-11-04T19:07:17.737Z,14.07
2022-11-04T19:09:47.152Z,8.53
2022-11-04T19:12:32.832Z,8.47
2022-11-04T19:14:59.345Z,8.43
2022-11-04T19:17:26.364Z,6.97
2022-11-04T19:19:54.105Z,7.23
2022-11-04T19:22:20.590Z,7.93
2022-11-04T19:24:47.098Z,8.47
2022-11-04T19:27:13.752Z,9.87
2022-11-04T19:29:40.213Z,10.57
2022-11-04T19:32:13.882Z,8.77
2022-11-04T19:34:43.241Z,8.23
2022-11-04T19:37:10.827Z,7.07
2022-11-04T19:39:39.782Z,6.83
2022-11-04T19:42:31.254Z,7.37
2022-11-04T19:44:57.789Z,7.37
2022-11-04T19:47:26.536Z,6.93
2022-11-04T19:49:53.263Z,6.57
2022-11-04T19:52:20.495Z,6.43
2022-11-04T19:54:47.167Z,6.03
2022-11-04T19:57:13.822Z,5.57
2022-11-04T19:59:43.208Z,6.60
2022-11-04T20:02:13.657Z,6.43
2022-11-04T20:04:42.102Z,5.57
2022-11-04T20:07:10.265Z,5.67
2022-11-04T20:09:37.593Z,5.20
2022-11-04T20:12:25.317Z,5.43
2022-11-04T20:14:55.361Z,6.00
2022-11-04T20:17:22.750Z,6.30
2022-11-04T20:19:49.217Z,6.70
2022-11-04T20:22:16.964Z,6.87
2022-11-04T20:24:43.861Z,6.30
2022-11-04T20:27:15.415Z,6.60
2022-11-04T20:29:43.000Z,6.10
2022-11-04T20:32:09.885Z,6.37
2022-11-04T20:34:37.833Z,6.87
2022-11-04T20:37:04.451Z,6.83
2022-11-04T20:39:31.114Z,6.63
2022-11-04T20:41:57.714Z,7.00
2022-11-04T20:44:24.772Z,6.97
2022-11-04T20:47:02.348Z,7.67
2022-11-04T20:49:28.862Z,7.90
2022-11-04T20:51:56.293Z,6.80
2022-11-04T20:54:22.943Z,7.37
2022-11-04T20:56:49.526Z,6.50
2022-11-04T20:59:16.817Z,6.23
2022-11-04T21:01:46.183Z,6.17
2022-11-04T21:04:15.528Z,7.17
2022-11-04T21:06:43.233Z,6.13
2022-11-04T21:09:12.264Z,6.93
2022-11-04T21:11:39.751Z,6.93
2022-11-04T21:14:12.797Z,6.00
2022-11-04T21:16:39.898Z,6.53
2022-11-04T21:19:07.829Z,6.60
2022-11-04T21:21:35.213Z,6.50
2022-11-04T21:24:06.944Z,6.53
2022-11-04T21:26:35.355Z,6.77
2022-11-04T21:29:04.703Z,7.20
2022-11-04T21:31:33.211Z,8.23
2022-11-04T21:34:00.195Z,7.87
2022-11-04T21:36:27.189Z,9.90
2022-11-04T21:38:53.649Z,9.67
2022-11-04T21:41:23.180Z,8.60
2022-11-04T21:43:54.737Z,8.90
2022-11-04T21:46:21.364Z,10.63
2022-11-04T21:48:48.241Z,8.37
2022-11-04T21:51:17.784Z,8.40
2022-11-04T21:53:44.713Z,9.30
2022-11-04T21:56:14.918Z,8.63
2022-11-04T21:58:43.781Z,8.13
2022-11-04T22:01:12.642Z,7.30
2022-11-04T22:03:39.458Z,7.47
2022-11-04T22:06:08.492Z,6.53
2022-11-04T22:08:36.158Z,6.60
2022-11-04T22:11:17.680Z,6.07
2022-11-04T22:13:44.542Z,6.70
2022-11-04T22:16:16.971Z,5.80
2022-11-04T22:18:43.542Z,5.50
2022-11-04T22:21:13.491Z,5.70
2022-11-04T22:23:40.315Z,5.27
2022-11-04T22:26:11.858Z,5.27
2022-11-04T22:28:38.441Z,5.10
2022-11-04T22:31:07.648Z,5.60
2022-11-04T22:33:34.161Z,5.77
2022-11-04T22:36:00.606Z,5.90
2022-11-04T22:38:27.110Z,6.47
2022-11-04T22:40:55.475Z,5.80
2022-11-04T22:43:22.029Z,6.87
2022-11-04T22:45:48.469Z,6.33
2022-11-04T22:48:14.972Z,6.00
2022-11-04T22:50:41.399Z,6.13
2022-11-04T22:53:08.175Z,5.67
2022-11-04T22:55:36.308Z,5.77
2022-11-04T22:58:03.540Z,5.90
2022-11-04T23:00:31.109Z,6.23
2022-11-04T23:02:58.007Z,6.70
2022-11-04T23:05:27.326Z,6.50
2022-11-04T23:07:54.392Z,7.37
2022-11-04T23:10:39.418Z,6.47
2022-11-04T23:13:24.856Z,7.03
2022-11-04T23:16:10.070Z,7.10
2022-11-04T23:18:42.502Z,6.90
2022-11-04T23:21:37.066Z,7.97
2022-11-04T23:24:22.168Z,6.90
2022-11-04T23:26:48.809Z,7.67
2022-11-04T23:29:34.939Z,7.57
2022-11-04T23:32:01.563Z,7.13
2022-11-04T23:34:46.937Z,7.63
2022-11-04T23:37:14.896Z,6.87
2022-11-04T23:39:47.676Z,7.57
2022-11-04T23:42:22.942Z,7.40
2022-11-04T23:45:14.940Z,7.40
2022-11-04T23:48:04.237Z,6.73
2022-11-04T23:50:55.557Z,7.17
2022-11-04T23:53:40.711Z,7.33
2022-11-04T23:56:28.779Z,6.97
2022-11-04T23:59:14.009Z,6.63
